createdAt,value
2023-06-11T00:01:36.171Z,94.60
2023-06-11T00:05:39.157Z,94.40
2023-06-11T00:09:43.312Z,94.60
2023-06-11T00:13:47.710Z,94.60
2023-06-11T00:17:50.777Z,94.40
2023-06-11T00:21:54.078Z,94.70
2023-06-11T00:25:58.242Z,94.90
2023-06-11T00:30:04.692Z,94.80
2023-06-11T00:34:07.747Z,94.80
2023-06-11T00:38:11.570Z,95.40
2023-06-11T00:42:14.638Z,95.70
2023-06-11T00:46:19.604Z,94.70
2023-06-11T00:50:23.192Z,94.90
2023-06-11T00:54:26.953Z,95.60
2023-06-11T00:58:30.919Z,95.60
2023-06-11T01:02:41.369Z,95.40
2023-06-11T01:06:47.523Z,95.20
2023-06-11T01:10:50.630Z,94.80
2023-06-11T01:14:55.722Z,95.00
2023-06-11T01:19:20.495Z,95.30
2023-06-11T01:23:34.784Z,95.90
2023-06-11T01:28:04.168Z,95.70
2023-06-11T01:32:08.026Z,95.40
2023-06-11T01:36:12.055Z,95.50
2023-06-11T01:40:15.725Z,95.30
2023-06-11T01:44:21.026Z,95.20
2023-06-11T01:48:24.185Z,95.00
2023-06-11T01:52:27.219Z,95.00
2023-06-11T01:56:33.702Z,95.10
2023-06-11T02:00:38.074Z,95.80
2023-06-11T02:04:41.054Z,95.60
2023-06-11T02:08:44.412Z,95.50
2023-06-11T02:12:47.413Z,95.60
2023-06-11T02:16:51.883Z,95.30
2023-06-11T02:20:54.928Z,95.40
2023-06-11T02:24:58.268Z,95.40
2023-06-11T02:29:01.271Z,95.30
2023-06-11T02:33:05.730Z,95.40
2023-06-11T02:37:09.023Z,96.10
2023-06-11T02:41:12.035Z,96.20
2023-06-11T02:45:15.043Z,95.80
2023-06-11T02:49:19.425Z,95.90
2023-06-11T02:53:22.426Z,96.00
2023-06-11T02:57:25.458Z,96.40
2023-06-11T03:01:28.563Z,95.80
2023-06-11T03:05:33.059Z,95.90
2023-06-11T03:09:36.113Z,95.70
2023-06-11T03:13:39.223Z,95.60
2023-06-11T03:17:42.257Z,95.60
2023-06-11T03:21:46.674Z,95.70
2023-06-11T03:25:49.677Z,95.80
2023-06-11T03:29:52.678Z,95.60
2023-06-11T03:33:55.753Z,95.60
2023-06-11T03:38:00.096Z,95.80
2023-06-11T03:42:03.177Z,95.50
2023-06-11T03:46:06.244Z,95.70
2023-06-11T03:50:10.186Z,95.70
2023-06-11T03:54:14.773Z,96.00
2023-06-11T03:58:17.791Z,96.00
2023-06-11T04:02:20.897Z,96.00
2023-06-11T04:06:24.029Z,96.30
2023-06-11T04:10:28.433Z,95.70
2023-06-11T04:14:31.557Z,95.70
2023-06-11T04:18:34.690Z,95.80
2023-06-11T04:22:37.750Z,96.00
2023-06-11T04:26:42.184Z,96.00
2023-06-11T04:30:46.101Z,96.00
2023-06-11T04:34:50.274Z,95.80
2023-06-11T04:38:53.709Z,96.30
2023-06-11T04:42:58.863Z,96.10
2023-06-11T04:47:02.382Z,96.10
2023-06-11T04:51:05.919Z,96.10
2023-06-11T04:55:11.541Z,96.10
2023-06-11T04:59:16.101Z,96.60
2023-06-11T05:03:19.826Z,96.10
2023-06-11T05:07:24.888Z,96.10
2023-06-11T05:11:28.141Z,96.40
2023-06-11T05:15:33.600Z,96.40
2023-06-11T05:19:36.617Z,96.70
2023-06-11T05:23:40.551Z,96.60
2023-06-11T05:27:55.349Z,97.10
2023-06-11T05:32:01.693Z,96.70
2023-06-11T05:36:06.038Z,96.30
2023-06-11T05:40:10.405Z,96.70
2023-06-11T05:44:13.429Z,97.40
2023-06-11T05:48:18.233Z,96.90
2023-06-11T05:52:21.304Z,97.30
2023-06-11T05:56:24.306Z,97.50
2023-06-11T06:00:27.391Z,97.00
2023-06-11T06:04:31.987Z,97.10
2023-06-11T06:08:35.029Z,97.20
2023-06-11T06:12:41.132Z,97.30
2023-06-11T06:16:44.197Z,97.70
2023-06-11T06:20:48.619Z,97.30
2023-06-11T06:24:51.692Z,97.30
2023-06-11T06:28:55.929Z,97.20
2023-06-11T06:32:59.065Z,97.40
2023-06-11T06:37:03.814Z,97.30
2023-06-11T06:41:06.869Z,97.10
2023-06-11T06:45:11.317Z,97.80
2023-06-11T06:49:14.591Z,97.60
2023-06-11T06:53:19.031Z,98.20
2023-06-11T06:57:22.077Z,97.60
2023-06-11T07:01:25.147Z,97.70
2023-06-11T07:05:28.826Z,97.80
2023-06-11T07:09:33.989Z,97.70
2023-06-11T07:13:37.333Z,97.50
2023-06-11T07:17:40.895Z,97.70
2023-06-11T07:21:44.108Z,98.00
2023-06-11T07:25:50.248Z,97.90
2023-06-11T07:29:53.283Z,98.10
2023-06-11T07:34:07.630Z,98.00
2023-06-11T07:38:10.705Z,98.40
2023-06-11T07:42:15.073Z,98.20
2023-06-11T07:46:33.281Z,98.00
2023-06-11T07:50:36.341Z,98.20
2023-06-11T07:54:39.810Z,97.90
2023-06-11T07:58:44.813Z,98.50
2023-06-11T08:02:50.156Z,98.40
2023-06-11T08:06:55.365Z,98.20
2023-06-11T08:10:58.372Z,98.10
2023-06-11T08:15:02.908Z,98.50
2023-06-11T08:19:05.949Z,98.40
2023-06-11T08:23:09.081Z,98.70
2023-06-11T08:27:13.387Z,98.50
2023-06-11T08:31:17.767Z,98.60
2023-06-11T08:35:21.657Z,98.40
2023-06-11T08:39:24.893Z,98.70
2023-06-11T08:43:27.973Z,98.60
2023-06-11T08:47:33.202Z,98.70
2023-06-11T08:51:38.213Z,98.70
2023-06-11T08:55:42.365Z,98.60
2023-06-11T08:59:46.546Z,98.70
2023-06-11T09:03:51.264Z,98.80
2023-06-11T09:07:55.226Z,98.90
2023-06-11T09:11:59.344Z,98.90
2023-06-11T09:16:02.451Z,99.00
2023-06-11T09:20:09.361Z,99.10
2023-06-11T09:24:13.160Z,99.20
2023-06-11T09:28:16.184Z,99.20
2023-06-11T09:32:33.210Z,99.10
2023-06-11T09:36:39.448Z,98.70
2023-06-11T09:40:46.425Z,99.00
2023-06-11T09:44:50.841Z,98.60
2023-06-11T10:09:18.934Z,99.00
2023-06-11T10:13:31.627Z,99.20
2023-06-11T10:17:34.804Z,98.90
2023-06-11T10:21:42.530Z,97.30
2023-06-11T10:25:55.428Z,98.70
2023-06-11T10:29:58.453Z,98.90
2023-06-11T10:34:05.183Z,98.40
2023-06-11T10:38:13.875Z,98.80
2023-06-11T10:42:24.952Z,98.50
2023-06-11T10:46:28.237Z,97.70
2023-06-11T10:50:33.223Z,97.40
2023-06-11T10:54:38.245Z,97.70
2023-06-11T10:58:43.581Z,97.50
2023-06-11T11:02:47.664Z,96.70
2023-06-11T11:10:57.571Z,95.90
2023-06-11T11:15:03.356Z,95.90
2023-06-11T11:19:06.412Z,95.90
2023-06-11T11:23:09.566Z,95.10
2023-06-11T11:35:26.449Z,94.90
2023-06-11T11:39:29.571Z,95.70
2023-06-11T11:43:38.934Z,94.50
2023-06-11T11:47:47.678Z,94.60
2023-06-11T11:51:55.124Z,95.00
2023-06-11T11:56:05.888Z,94.10
2023-06-11T12:00:11.466Z,93.60
2023-06-11T12:04:16.010Z,93.80
2023-06-11T12:08:19.005Z,93.70
2023-06-11T12:12:22.051Z,93.20
2023-06-11T12:16:25.755Z,93.20
2023-06-11T12:20:30.404Z,92.90
2023-06-11T12:24:34.171Z,93.40
2023-06-11T12:28:38.579Z,93.20
2023-06-11T12:32:43.409Z,93.70
2023-06-11T14:10:31.252Z,90.10
2023-06-11T14:14:36.761Z,87.70
2023-06-11T14:18:42.775Z,86.90
2023-06-11T14:22:46.071Z,88.60
2023-06-11T14:26:49.148Z,90.00
2023-06-11T14:30:53.954Z,89.50
2023-06-11T14:34:57.549Z,88.10
2023-06-11T14:39:00.619Z,89.40
2023-06-11T14:43:03.882Z,87.70
2023-06-11T14:47:08.791Z,89.20
2023-06-11T14:51:11.877Z,88.80
2023-06-11T14:55:14.988Z,88.00
2023-06-11T14:59:18.011Z,88.20
2023-06-11T15:03:22.716Z,87.30
2023-06-11T15:07:34.780Z,84.30
2023-06-11T15:11:38.960Z,84.60
2023-06-11T15:15:42.029Z,85.70
2023-06-11T15:19:46.398Z,83.90
2023-06-11T15:23:49.450Z,82.00
2023-06-11T15:27:52.527Z,84.60
2023-06-11T15:31:58.122Z,85.60
2023-06-11T15:36:02.493Z,85.70
2023-06-11T15:40:06.340Z,85.30
2023-06-11T15:44:09.387Z,83.90
2023-06-11T15:48:12.444Z,83.90
2023-06-11T15:52:16.813Z,83.70
2023-06-11T15:56:20.220Z,83.30
2023-06-11T16:00:23.248Z,84.80
2023-06-11T16:53:17.156Z,80.40
2023-06-11T16:57:21.570Z,80.80
2023-06-11T17:01:25.607Z,79.90
2023-06-11T17:05:28.667Z,80.60
2023-06-11T17:09:31.638Z,80.70
2023-06-11T17:13:36.290Z,80.80
2023-06-11T17:17:39.339Z,80.90
2023-06-11T17:21:42.443Z,81.50
2023-06-11T17:25:46.240Z,81.00
2023-06-11T17:29:50.844Z,80.40
2023-06-11T17:33:53.922Z,81.60
2023-06-11T17:37:57.960Z,79.40
2023-06-11T17:42:01.740Z,81.10
2023-06-11T17:46:06.320Z,79.90
2023-06-11T17:50:11.798Z,80.30
2023-06-11T17:54:15.266Z,80.20
2023-06-11T17:58:18.358Z,80.10
2023-06-11T18:02:22.811Z,80.60
2023-06-11T18:06:25.951Z,81.70
2023-06-11T18:10:29.011Z,80.40
2023-06-11T18:14:32.087Z,81.10
2023-06-11T18:18:36.563Z,81.00
2023-06-11T18:22:39.644Z,81.20
2023-06-11T18:26:42.657Z,81.20
2023-06-11T18:30:45.749Z,82.00
2023-06-11T18:34:50.183Z,82.20
2023-06-11T18:38:53.336Z,81.60
2023-06-11T18:42:56.360Z,81.70
2023-06-11T18:47:02.040Z,82.00
2023-06-11T18:51:06.481Z,82.10
2023-06-11T18:55:10.085Z,82.40
2023-06-11T18:59:13.326Z,82.50
2023-06-11T19:03:16.510Z,82.70
2023-06-11T19:07:21.041Z,83.00
2023-06-11T19:11:24.148Z,83.30
2023-06-11T19:15:28.276Z,83.70
2023-06-11T19:19:31.322Z,84.00
2023-06-11T19:23:35.760Z,84.40
2023-06-11T19:27:38.942Z,84.60
2023-06-11T19:31:41.850Z,84.60
2023-06-11T19:35:44.978Z,85.00
2023-06-11T19:39:49.439Z,85.10
2023-06-11T19:43:52.441Z,85.30
2023-06-11T19:47:55.855Z,85.50
2023-06-11T19:51:58.973Z,85.70
2023-06-11T19:56:03.324Z,86.00
2023-06-11T20:00:07.265Z,86.10
2023-06-11T20:04:10.348Z,86.30
2023-06-11T20:08:14.924Z,86.10
2023-06-11T20:12:19.387Z,86.40
2023-06-11T20:16:26.047Z,86.80
2023-06-11T20:20:29.125Z,87.10
2023-06-11T20:24:32.147Z,87.30
2023-06-11T20:28:36.573Z,87.40
2023-06-11T20:32:39.659Z,87.70
2023-06-11T20:36:42.897Z,87.70
2023-06-11T20:40:46.593Z,88.00
2023-06-11T20:44:51.511Z,88.80
2023-06-11T20:48:54.662Z,88.90
2023-06-11T20:52:57.686Z,88.30
2023-06-11T20:57:00.911Z,89.30
2023-06-11T21:01:06.121Z,90.10
2023-06-11T21:05:09.140Z,90.00
2023-06-11T21:09:12.022Z,90.10
2023-06-11T21:13:15.040Z,90.80
2023-06-11T21:17:19.271Z,90.30
2023-06-11T21:21:22.148Z,90.80
2023-06-11T21:25:24.995Z,90.60
2023-06-11T21:29:28.002Z,90.90
2023-06-11T21:33:32.456Z,90.90
2023-06-11T21:37:35.332Z,91.30
2023-06-11T21:41:38.164Z,90.80
2023-06-11T21:45:41.026Z,90.90
2023-06-11T21:49:45.271Z,90.80
2023-06-11T21:53:48.097Z,91.40
2023-06-11T21:57:51.486Z,91.50
2023-06-11T22:01:54.323Z,91.00
2023-06-11T22:05:58.940Z,91.40
2023-06-11T22:10:02.247Z,91.50
2023-06-11T22:14:05.146Z,90.80
2023-06-11T22:18:08.139Z,91.70
2023-06-11T22:22:12.538Z,91.90
2023-06-11T22:26:15.420Z,91.40
2023-06-11T22:30:18.238Z,91.10
2023-06-11T22:34:21.138Z,92.00
2023-06-11T22:38:25.392Z,91.80
2023-06-11T22:42:28.263Z,92.10
2023-06-11T22:46:31.131Z,92.10
2023-06-11T22:50:35.090Z,92.40
2023-06-11T22:54:39.661Z,91.50
2023-06-11T22:58:42.602Z,92.20
2023-06-11T23:02:45.768Z,91.80
2023-06-11T23:06:51.057Z,92.40
2023-06-11T23:10:55.254Z,92.20
2023-06-11T23:14:58.356Z,92.60
2023-06-11T23:19:02.459Z,92.50
2023-06-11T23:23:06.855Z,92.70
2023-06-11T23:27:13.879Z,92.30
2023-06-11T23:31:21.971Z,92.50
2023-06-11T23:35:25.176Z,92.90
2023-06-11T23:39:29.032Z,92.30
2023-06-11T23:43:33.206Z,92.30
2023-06-11T23:47:36.073Z,92.80
2023-06-11T23:51:41.719Z,93.00
2023-06-11T23:55:44.716Z,93.00
2023-06-11T23:59:50.930Z,93.30
